createdAt,value
2024-01-03T00:00:07.114Z,1062.90
2024-01-03T00:01:07.828Z,1069.71
2024-01-03T00:02:07.840Z,1067.15
2024-01-03T00:03:06.334Z,1072.29
2024-01-03T00:04:06.427Z,1064.59
2024-01-03T00:05:06.290Z,1065.44
2024-01-03T00:06:07.898Z,1069.71
2024-01-03T00:07:06.360Z,1065.44
2024-01-03T00:08:07.775Z,1066.29
2024-01-03T00:09:06.988Z,1065.44
2024-01-03T00:10:06.231Z,1059.52
2024-01-03T00:11:07.674Z,1064.59
2024-01-03T00:12:06.228Z,1068.00
2024-01-03T00:13:06.196Z,1066.29
2024-01-03T00:14:07.611Z,1064.59
2024-01-03T00:15:06.174Z,1064.59
2024-01-03T00:16:07.570Z,1065.44
2024-01-03T00:17:07.560Z,1068.85
2024-01-03T00:18:06.857Z,1064.59
2024-01-03T00:19:06.685Z,1065.44
2024-01-03T00:20:06.138Z,1069.71
2024-01-03T00:21:06.105Z,1064.59
2024-01-03T00:22:07.490Z,1063.74
2024-01-03T00:23:06.085Z,1073.15
2024-01-03T00:24:06.776Z,1065.44
2024-01-03T00:25:07.459Z,1070.57
2024-01-03T00:26:06.007Z,1065.44
2024-01-03T00:27:06.071Z,1070.57
2024-01-03T00:28:06.189Z,1070.57
2024-01-03T00:29:06.173Z,1074.88
2024-01-03T00:30:07.406Z,1063.74
2024-01-03T00:31:06.003Z,1060.36
2024-01-03T00:32:06.742Z,1065.44
2024-01-03T00:33:06.795Z,1062.90
2024-01-03T00:34:07.480Z,1064.59
2024-01-03T00:35:05.942Z,1059.52
2024-01-03T00:36:05.940Z,1059.52
2024-01-03T00:37:05.867Z,1062.05
2024-01-03T00:38:06.851Z,1061.21
2024-01-03T00:39:05.859Z,1052.01
2024-01-03T00:40:07.784Z,1068.85
2024-01-03T00:41:07.764Z,1058.68
2024-01-03T00:42:05.831Z,1057.84
2024-01-03T00:43:07.735Z,1052.01
2024-01-03T00:44:07.789Z,1060.36
2024-01-03T00:45:06.519Z,1049.53
2024-01-03T00:46:07.672Z,1046.24
2024-01-03T00:47:05.751Z,1048.70
2024-01-03T00:48:05.970Z,1051.18
2024-01-03T00:49:07.733Z,1052.01
2024-01-03T00:50:06.544Z,1043.78
2024-01-03T00:51:05.661Z,1042.97
2024-01-03T00:52:05.640Z,1056.17
2024-01-03T00:53:05.642Z,1056.17
2024-01-03T00:54:07.599Z,1055.34
2024-01-03T00:55:05.611Z,1047.88
2024-01-03T00:56:07.544Z,1059.52
2024-01-03T00:57:07.208Z,1058.68
2024-01-03T00:58:06.671Z,1060.36
2024-01-03T00:59:05.572Z,1050.35
2024-01-03T01:00:05.559Z,1061.21
2024-01-03T01:01:05.553Z,1057.01
2024-01-03T01:02:06.304Z,1064.59
2024-01-03T01:03:05.503Z,1060.36
2024-01-03T01:04:06.285Z,1062.90
2024-01-03T01:05:06.259Z,1063.74
2024-01-03T01:06:07.442Z,1065.44
2024-01-03T01:07:06.270Z,1063.74
2024-01-03T01:08:07.053Z,1068.00
2024-01-03T01:09:05.774Z,1066.29
2024-01-03T01:10:06.140Z,1063.74
2024-01-03T01:11:05.379Z,1068.85
2024-01-03T01:12:06.802Z,1068.85
2024-01-03T01:13:06.767Z,1066.29
2024-01-03T01:14:06.748Z,1071.43
2024-01-03T01:15:05.328Z,1068.85
2024-01-03T01:16:05.585Z,1072.29
2024-01-03T01:17:05.332Z,1066.29
2024-01-03T01:18:07.019Z,1066.29
2024-01-03T01:19:05.359Z,1067.15
2024-01-03T01:20:06.293Z,1067.15
2024-01-03T01:21:06.647Z,1068.85
2024-01-03T01:22:05.268Z,1071.43
2024-01-03T01:23:05.616Z,1076.61
2024-01-03T01:24:05.284Z,1077.48
2024-01-03T01:25:05.309Z,1072.29
2024-01-03T01:26:06.636Z,1081.85
2024-01-03T01:27:05.387Z,1077.48
2024-01-03T01:28:06.121Z,1076.61
2024-01-03T01:29:06.547Z,1075.74
2024-01-03T01:30:05.897Z,1083.60
2024-01-03T01:31:05.129Z,1073.15
2024-01-03T01:32:05.159Z,1088.02
2024-01-03T01:33:05.174Z,1090.69
2024-01-03T01:34:05.685Z,1085.37
2024-01-03T01:35:05.056Z,1095.16
2024-01-03T01:36:06.512Z,1082.72
2024-01-03T01:37:05.625Z,1087.13
2024-01-03T01:38:05.115Z,1090.69
2024-01-03T01:39:05.648Z,1096.06
2024-01-03T01:40:06.433Z,1096.06
2024-01-03T01:41:05.641Z,1100.58
2024-01-03T01:42:05.047Z,1097.86
2024-01-03T01:43:05.002Z,1104.22
2024-01-03T01:44:04.954Z,1098.77
2024-01-03T01:45:04.988Z,1096.96
2024-01-03T01:46:04.950Z,1097.86
2024-01-03T01:47:04.894Z,1100.58
2024-01-03T01:48:05.028Z,1097.86
2024-01-03T01:49:04.979Z,1100.58
2024-01-03T01:50:04.910Z,1097.86
2024-01-03T01:51:04.886Z,1091.58
2024-01-03T01:52:04.992Z,1096.06
2024-01-03T01:53:05.034Z,1099.67
2024-01-03T01:54:05.667Z,1099.67
2024-01-03T01:55:05.489Z,1101.48
2024-01-03T01:56:06.244Z,1091.58
2024-01-03T01:57:06.389Z,1094.26
2024-01-03T01:58:04.942Z,1101.48
2024-01-03T01:59:04.870Z,1099.67
2024-01-03T02:00:05.089Z,1095.16
2024-01-03T02:01:06.228Z,1096.06
2024-01-03T02:02:05.433Z,1094.26
2024-01-03T02:03:06.165Z,1096.06
2024-01-03T02:04:06.241Z,1101.48
2024-01-03T02:05:05.002Z,1102.40
2024-01-03T02:06:04.962Z,1094.26
2024-01-03T02:07:05.341Z,1098.77
2024-01-03T02:08:05.359Z,1110.65
2024-01-03T02:09:04.990Z,1112.50
2024-01-03T02:10:04.599Z,1120.91
2024-01-03T02:11:04.561Z,1129.44
2024-01-03T02:12:04.557Z,1136.17
2024-01-03T02:13:04.563Z,1143.96
2024-01-03T02:14:05.911Z,1141.03
2024-01-03T02:15:04.531Z,1155.84
2024-01-03T02:16:05.897Z,1164.92
2024-01-03T02:17:05.876Z,1176.21
2024-01-03T02:18:04.882Z,1184.56
2024-01-03T02:19:04.604Z,1199.46
2024-01-03T02:20:05.837Z,1212.53
2024-01-03T02:21:05.187Z,1215.85
2024-01-03T02:22:04.453Z,1218.07
2024-01-03T02:23:04.421Z,1239.55
2024-01-03T02:24:05.783Z,1250.00
2024-01-03T02:25:04.375Z,1259.43
2024-01-03T02:26:10.431Z,1278.74
2024-01-03T02:27:05.706Z,1283.65
2024-01-03T02:28:05.142Z,1298.64
2024-01-03T02:29:05.097Z,1303.71
2024-01-03T02:30:04.339Z,1301.17
2024-01-03T02:31:05.049Z,1308.82
2024-01-03T02:32:05.018Z,1313.98
2024-01-03T02:33:05.027Z,1317.87
2024-01-03T02:34:05.786Z,1312.68
2024-01-03T02:35:05.656Z,1299.90
2024-01-03T02:36:04.325Z,1302.44
2024-01-03T02:37:04.240Z,1301.17
2024-01-03T02:38:04.619Z,1298.64
2024-01-03T02:39:04.917Z,1296.12
2024-01-03T02:40:04.929Z,1296.12
2024-01-03T02:41:04.659Z,1297.38
2024-01-03T02:42:04.864Z,1302.44
2024-01-03T02:43:04.704Z,1313.98
2024-01-03T02:44:04.746Z,1310.11
2024-01-03T02:45:06.016Z,1303.71
2024-01-03T02:46:04.102Z,1304.98
2024-01-03T02:47:04.792Z,1317.87
2024-01-03T02:48:06.142Z,1306.26
2024-01-03T02:49:04.875Z,1313.98
2024-01-03T02:50:05.975Z,1313.98
2024-01-03T02:51:04.766Z,1324.41
2024-01-03T02:52:04.610Z,1303.71
2024-01-03T02:53:05.921Z,1296.12
2024-01-03T02:54:04.074Z,1293.60
2024-01-03T02:55:05.909Z,1293.60
2024-01-03T02:56:05.898Z,1278.74
2024-01-03T02:57:04.445Z,1267.81
2024-01-03T02:58:04.662Z,1275.07
2024-01-03T02:59:05.827Z,1261.81
2024-01-03T03:00:05.888Z,1252.34
2024-01-03T03:01:05.853Z,1253.52
2024-01-03T03:02:03.828Z,1240.71
2024-01-03T03:03:05.834Z,1234.97
2024-01-03T03:04:05.828Z,1238.40
2024-01-03T03:05:04.531Z,1231.55
2024-01-03T03:06:05.303Z,1229.28
2024-01-03T03:07:05.227Z,1223.65
2024-01-03T03:08:03.829Z,1227.02
2024-01-03T03:09:13.417Z,1221.41
2024-01-03T03:10:06.748Z,1222.53
2024-01-03T03:11:04.500Z,1216.95
2024-01-03T03:12:04.497Z,1221.41
2024-01-03T03:13:04.427Z,1225.90
2024-01-03T03:14:05.083Z,1236.11
2024-01-03T03:15:04.472Z,1229.28
2024-01-03T03:16:04.374Z,1227.02
2024-01-03T03:17:04.371Z,1225.90
2024-01-03T03:18:03.811Z,1221.41
2024-01-03T03:19:05.215Z,1223.65
2024-01-03T03:20:04.330Z,1231.55
2024-01-03T03:21:03.655Z,1230.42
2024-01-03T03:22:04.301Z,1225.90
2024-01-03T03:23:04.952Z,1230.42
2024-01-03T03:24:03.569Z,1228.15
2024-01-03T03:25:05.125Z,1230.42
2024-01-03T03:26:03.509Z,1222.53
2024-01-03T03:27:04.364Z,1236.11
2024-01-03T03:28:04.189Z,1234.97
2024-01-03T03:29:03.483Z,1231.55
2024-01-03T03:30:03.928Z,1238.40
2024-01-03T03:31:04.980Z,1247.66
2024-01-03T03:32:03.419Z,1244.18
2024-01-03T03:33:05.025Z,1247.66
2024-01-03T03:34:03.489Z,1248.83
2024-01-03T03:35:05.339Z,1259.43
2024-01-03T03:36:04.831Z,1260.62
2024-01-03T03:37:03.363Z,1271.43
2024-01-03T03:38:03.765Z,1271.43
2024-01-03T03:39:03.489Z,1284.89
2024-01-03T03:40:03.766Z,1276.29
2024-01-03T03:41:03.354Z,1265.40
2024-01-03T03:42:03.345Z,1269.01
2024-01-03T03:43:03.991Z,1266.60
2024-01-03T03:44:04.018Z,1281.19
2024-01-03T03:45:03.846Z,1289.85
2024-01-03T03:46:03.971Z,1303.71
2024-01-03T03:47:03.240Z,1316.57
2024-01-03T03:48:03.397Z,1339.02
2024-01-03T03:49:04.111Z,1349.85
2024-01-03T03:50:03.173Z,1380.56
2024-01-03T03:51:03.959Z,1374.87
2024-01-03T03:52:03.876Z,1400.84
2024-01-03T03:53:03.884Z,1418.70
2024-01-03T03:54:03.897Z,1426.28
2024-01-03T03:55:03.562Z,1421.72
2024-01-03T03:56:03.571Z,1430.87
2024-01-03T03:57:04.504Z,1441.69
2024-01-03T03:58:03.064Z,1447.94
2024-01-03T03:59:04.467Z,1447.94
2024-01-03T04:00:03.838Z,1452.67
2024-01-03T04:01:03.369Z,1454.25
2024-01-03T04:02:03.103Z,1471.89
2024-01-03T04:03:03.099Z,1476.77
2024-01-03T04:04:03.158Z,1483.33
2024-01-03T04:05:04.492Z,1481.69
2024-01-03T04:06:03.198Z,1493.29
2024-01-03T04:07:04.414Z,1508.47
2024-01-03T04:08:04.343Z,1499.16
2024-01-03T04:09:03.069Z,1505.07
2024-01-03T04:10:04.398Z,1518.77
2024-01-03T04:11:03.626Z,1512.75
2024-01-03T04:12:03.117Z,1516.18
2024-01-03T04:13:04.333Z,1519.64
2024-01-03T04:14:02.861Z,1518.77
2024-01-03T04:15:03.595Z,1526.59
2024-01-03T04:16:03.610Z,1525.71
2024-01-03T04:17:04.251Z,1528.33
2024-01-03T04:18:04.428Z,1542.46
2024-01-03T04:19:03.689Z,1526.59
2024-01-03T04:20:02.800Z,1524.84
2024-01-03T04:21:04.220Z,1527.46
2024-01-03T04:22:02.777Z,1523.10
2024-01-03T04:23:03.505Z,1517.91
2024-01-03T04:24:04.206Z,1519.64
2024-01-03T04:25:04.166Z,1517.91
2024-01-03T04:26:03.430Z,1518.77
2024-01-03T04:27:03.501Z,1520.50
2024-01-03T04:28:02.760Z,1519.64
2024-01-03T04:29:04.089Z,1527.46
2024-01-03T04:30:02.826Z,1517.91
2024-01-03T04:31:03.460Z,1532.72
2024-01-03T04:32:03.338Z,1539.79
2024-01-03T04:33:04.121Z,1543.35
2024-01-03T04:34:03.403Z,1539.79
2024-01-03T04:35:03.957Z,1546.03
2024-01-03T04:36:02.639Z,1538.02
2024-01-03T04:37:03.307Z,1559.58
2024-01-03T04:38:02.524Z,1565.06
2024-01-03T04:39:03.922Z,1569.67
2024-01-03T04:40:03.229Z,1577.08
2024-01-03T04:41:03.259Z,1580.82
2024-01-03T04:42:03.936Z,1587.40
2024-01-03T04:43:02.463Z,1592.13
2024-01-03T04:44:02.445Z,1595.94
2024-01-03T04:45:03.224Z,1603.60
2024-01-03T04:46:02.419Z,1625.08
2024-01-03T04:47:03.814Z,1621.13
2024-01-03T04:48:03.946Z,1624.09
2024-01-03T04:49:02.485Z,1633.03
2024-01-03T04:50:03.186Z,1648.15
2024-01-03T04:51:03.825Z,1644.09
2024-01-03T04:52:02.408Z,1651.21
2024-01-03T04:53:03.757Z,1654.28
2024-01-03T04:54:02.329Z,1668.75
2024-01-03T04:55:03.071Z,1660.45
2024-01-03T04:56:03.022Z,1668.75
2024-01-03T04:57:02.352Z,1679.24
2024-01-03T04:58:02.956Z,1678.19
2024-01-03T04:59:04.202Z,1683.48
2024-01-03T05:00:02.373Z,1677.14
2024-01-03T05:01:04.218Z,1675.03
2024-01-03T05:02:02.210Z,1675.03
2024-01-03T05:03:02.932Z,1673.98
2024-01-03T05:04:04.174Z,1678.19
2024-01-03T05:05:03.574Z,1673.98
2024-01-03T05:06:04.181Z,1687.74
2024-01-03T05:07:03.504Z,1689.87
2024-01-03T05:08:02.209Z,1690.94
2024-01-03T05:09:03.520Z,1701.72
2024-01-03T05:10:02.109Z,1698.47
2024-01-03T05:11:02.769Z,1699.55
2024-01-03T05:12:03.481Z,1714.84
2024-01-03T05:13:02.788Z,1703.89
2024-01-03T05:14:03.456Z,1708.25
2024-01-03T05:15:02.242Z,1721.47
2024-01-03T05:16:02.464Z,1713.74
2024-01-03T05:17:02.717Z,1710.44
2024-01-03T05:18:02.084Z,1714.84
2024-01-03T05:19:02.788Z,1712.64
2024-01-03T05:20:03.366Z,1714.84
2024-01-03T05:21:01.992Z,1711.54
2024-01-03T05:22:02.690Z,1721.47
2024-01-03T05:23:01.939Z,1728.16
2024-01-03T05:24:01.975Z,1748.53
2024-01-03T05:25:03.288Z,1754.27
2024-01-03T05:26:03.817Z,1761.21
2024-01-03T05:27:02.610Z,1777.63
2024-01-03T05:28:02.559Z,1764.71
2024-01-03T05:29:03.209Z,1788.35
2024-01-03T05:30:03.391Z,1788.35
2024-01-03T05:31:02.053Z,1782.38
2024-01-03T05:32:02.509Z,1789.54
2024-01-03T05:33:02.582Z,1804.05
2024-01-03T05:34:02.002Z,1812.63
2024-01-03T05:35:03.178Z,1836.31
2024-01-03T05:36:03.196Z,1858.04
2024-01-03T05:37:02.448Z,1878.96
2024-01-03T05:38:02.437Z,1909.87
2024-01-03T05:39:03.166Z,1929.19
2024-01-03T05:40:03.081Z,1946.06
2024-01-03T05:41:04.501Z,1979.24
2024-01-03T05:42:01.735Z,1988.09
2024-01-03T05:43:03.040Z,2010.54
2024-01-03T05:44:02.460Z,2015.09
2024-01-03T05:45:03.276Z,2033.51
2024-01-03T05:46:02.327Z,2041.28
2024-01-03T05:47:01.866Z,2074.59
2024-01-03T05:48:02.117Z,2084.31
2024-01-03T05:49:02.393Z,2097.41
2024-01-03T05:50:03.087Z,2129.19
2024-01-03T05:51:02.308Z,2129.19
2024-01-03T05:52:02.915Z,2161.94
2024-01-03T05:53:02.903Z,2158.45
2024-01-03T05:54:01.597Z,2184.94
2024-01-03T05:55:02.877Z,2183.16
2024-01-03T05:56:02.194Z,2181.37
2024-01-03T05:57:02.939Z,2183.16
2024-01-03T05:58:01.437Z,2183.16
2024-01-03T05:59:02.190Z,2192.12
2024-01-03T06:00:01.742Z,2184.94
2024-01-03T06:01:01.459Z,2193.92
2024-01-03T06:02:02.089Z,2184.94
2024-01-03T06:03:02.186Z,2192.12
2024-01-03T06:04:01.377Z,2201.15
2024-01-03T06:05:01.850Z,2208.44
2024-01-03T06:06:02.809Z,2195.72
2024-01-03T06:07:02.768Z,2188.52
2024-01-03T06:08:03.243Z,2149.76
2024-01-03T06:09:02.036Z,2156.70
2024-01-03T06:10:01.574Z,2115.69
2024-01-03T06:11:01.301Z,2109.00
2024-01-03T06:12:03.223Z,2074.59
2024-01-03T06:13:01.225Z,2057.01
2024-01-03T06:14:01.219Z,2027.33
2024-01-03T06:15:02.037Z,1995.52
2024-01-03T06:16:01.886Z,1960.35
2024-01-03T06:17:01.202Z,1929.19
2024-01-03T06:18:02.725Z,1920.86
2024-01-03T06:19:02.068Z,1888.26
2024-01-03T06:20:01.226Z,1885.59
2024-01-03T06:21:01.204Z,1840.11
2024-01-03T06:22:01.131Z,1842.65
2024-01-03T06:23:01.873Z,1794.35
2024-01-03T06:24:02.552Z,1761.21
2024-01-03T06:25:01.100Z,1741.68
2024-01-03T06:26:03.012Z,1715.94
2024-01-03T06:27:01.906Z,1698.47
2024-01-03T06:28:01.780Z,1673.98
2024-01-03T06:29:01.133Z,1656.33
2024-01-03T06:30:01.206Z,1641.06
2024-01-03T06:31:02.514Z,1628.05
2024-01-03T06:32:02.914Z,1607.46
2024-01-03T06:33:00.997Z,1594.03
2024-01-03T06:34:01.083Z,1581.75
2024-01-03T06:35:02.359Z,1586.45
2024-01-03T06:36:01.033Z,1564.15
2024-01-03T06:37:00.903Z,1550.52
2024-01-03T06:38:02.294Z,1541.57
2024-01-03T06:39:01.631Z,1515.32
2024-01-03T06:40:02.280Z,1519.64
2024-01-03T06:41:02.294Z,1505.92
2024-01-03T06:42:01.641Z,1498.32
2024-01-03T06:43:02.245Z,1486.64
2024-01-03T06:44:02.230Z,1486.64
2024-01-03T06:45:01.607Z,1473.51
2024-01-03T06:46:01.515Z,1452.67
2024-01-03T06:47:02.169Z,1440.13
2024-01-03T06:48:01.644Z,1443.24
2024-01-03T06:49:02.452Z,1430.87
2024-01-03T06:50:01.487Z,1429.34
2024-01-03T06:51:02.197Z,1409.71
2024-01-03T06:52:01.433Z,1399.37
2024-01-03T06:53:00.690Z,1396.44
2024-01-03T06:54:01.401Z,1392.07
2024-01-03T06:55:02.261Z,1372.05
2024-01-03T06:56:01.882Z,1372.05
2024-01-03T06:57:01.439Z,1356.71
2024-01-03T06:58:00.633Z,1360.86
2024-01-03T06:59:02.023Z,1340.36
2024-01-03T07:00:00.809Z,1333.67
2024-01-03T07:01:02.546Z,1335.00
2024-01-03T07:02:01.345Z,1319.17
2024-01-03T07:03:02.110Z,1312.68
2024-01-03T07:04:00.588Z,1320.47
2024-01-03T07:05:00.565Z,1310.11
2024-01-03T07:06:00.611Z,1303.71
2024-01-03T07:07:01.909Z,1291.10
2024-01-03T07:08:01.878Z,1296.12
2024-01-03T07:09:00.665Z,1281.19
2024-01-03T07:10:01.864Z,1276.29
2024-01-03T07:11:01.862Z,1269.01
2024-01-03T07:12:00.616Z,1266.60
2024-01-03T07:13:00.576Z,1271.43
2024-01-03T07:14:00.577Z,1261.81
2024-01-03T07:15:01.379Z,1252.34
2024-01-03T07:16:00.602Z,1248.83
2024-01-03T07:17:00.331Z,1246.50
2024-01-03T07:18:00.909Z,1231.55
2024-01-03T07:19:01.289Z,1233.83
2024-01-03T07:20:00.422Z,1237.26
2024-01-03T07:21:00.557Z,1216.95
2024-01-03T07:22:00.274Z,1219.18
2024-01-03T07:23:00.531Z,1216.95
2024-01-03T07:24:01.006Z,1216.95
2024-01-03T07:25:00.669Z,1213.64
2024-01-03T07:26:01.615Z,1213.64
2024-01-03T07:27:01.050Z,1209.24
2024-01-03T07:28:00.209Z,1203.79
2024-01-03T07:29:00.210Z,1189.84
2024-01-03T07:30:00.466Z,1194.10
2024-01-03T07:31:01.660Z,1191.96
2024-01-03T07:32:00.336Z,1188.78
2024-01-03T07:33:00.266Z,1190.90
2024-01-03T07:34:01.747Z,1189.84
2024-01-03T07:35:01.511Z,1190.90
2024-01-03T07:36:00.668Z,1188.78
2024-01-03T07:37:00.778Z,1186.67
2024-01-03T07:38:00.561Z,1194.10
2024-01-03T07:39:01.484Z,1195.17
2024-01-03T07:40:01.451Z,1190.90
2024-01-03T07:41:00.045Z,1199.46
2024-01-03T07:42:00.811Z,1193.03
2024-01-03T07:43:00.716Z,1185.61
2024-01-03T07:43:59.979Z,1190.90
2024-01-03T07:45:01.511Z,1190.90
2024-01-03T07:46:01.354Z,1182.46
2024-01-03T07:47:00.671Z,1184.56
2024-01-03T07:48:01.390Z,1181.42
2024-01-03T07:48:59.973Z,1180.37
2024-01-03T07:50:00.726Z,1175.18
2024-01-03T07:51:00.660Z,1166.96
2024-01-03T07:51:59.859Z,1166.96
2024-01-03T07:52:59.976Z,1163.91
2024-01-03T07:53:59.861Z,1152.85
2024-01-03T07:55:01.238Z,1159.86
2024-01-03T07:56:00.572Z,1152.85
2024-01-03T07:56:59.846Z,1153.85
2024-01-03T07:58:00.583Z,1150.86
2024-01-03T07:59:01.192Z,1148.88
2024-01-03T07:59:59.857Z,1137.14
2024-01-03T08:01:01.194Z,1145.92
2024-01-03T08:01:59.731Z,1127.53
2024-01-03T08:03:01.150Z,1136.17
2024-01-03T08:04:00.496Z,1122.79
2024-01-03T08:04:59.694Z,1125.63
2024-01-03T08:06:04.140Z,1118.09
2024-01-03T08:07:01.152Z,1112.50
2024-01-03T08:07:59.643Z,1109.73
2024-01-03T08:09:01.091Z,1113.43
2024-01-03T08:10:00.025Z,1102.40
2024-01-03T08:11:00.353Z,1103.31
2024-01-03T08:12:00.504Z,1107.88
2024-01-03T08:13:00.021Z,1098.77
2024-01-03T08:14:00.305Z,1094.26
2024-01-03T08:15:01.120Z,1089.80
2024-01-03T08:16:00.280Z,1088.91
2024-01-03T08:16:59.629Z,1088.91
2024-01-03T08:18:02.643Z,1084.48
2024-01-03T08:19:00.329Z,1087.13
2024-01-03T08:20:00.542Z,1075.74
2024-01-03T08:20:59.590Z,1073.15
2024-01-03T08:22:01.439Z,1075.74
2024-01-03T08:23:00.870Z,1077.48
2024-01-03T08:23:59.953Z,1080.10
2024-01-03T08:25:00.813Z,1071.43
2024-01-03T08:25:59.697Z,1083.60
2024-01-03T08:27:00.003Z,1074.88
2024-01-03T08:28:00.802Z,1080.97
2024-01-03T08:28:59.391Z,1076.61
2024-01-03T08:30:00.134Z,1071.43
2024-01-03T08:31:01.357Z,1075.74
2024-01-03T08:32:00.058Z,1076.61
2024-01-03T08:33:01.068Z,1076.61
2024-01-03T08:34:01.355Z,1078.35
2024-01-03T08:35:00.682Z,1080.10
2024-01-03T08:36:00.773Z,1075.74
2024-01-03T08:36:59.262Z,1088.02
2024-01-03T08:37:59.987Z,1087.13
2024-01-03T08:38:59.304Z,1094.26
2024-01-03T08:40:00.613Z,1098.77
2024-01-03T08:40:59.932Z,1097.86
2024-01-03T08:42:00.647Z,1096.06
2024-01-03T08:43:00.609Z,1096.96
2024-01-03T08:43:59.930Z,1096.96
2024-01-03T08:44:59.171Z,1095.16
2024-01-03T08:45:59.840Z,1092.47
2024-01-03T08:46:59.861Z,1091.58
2024-01-03T08:47:59.301Z,1096.06
2024-01-03T08:48:59.986Z,1094.26
2024-01-03T08:49:59.233Z,1087.13
2024-01-03T08:50:59.192Z,1096.96
2024-01-03T08:52:00.612Z,1094.26
2024-01-03T08:52:59.054Z,1088.91
2024-01-03T08:53:59.800Z,1085.37
2024-01-03T08:54:59.780Z,1080.10
2024-01-03T08:55:59.712Z,1077.48
2024-01-03T08:56:59.719Z,1087.13
2024-01-03T08:57:59.771Z,1085.37
2024-01-03T08:59:00.336Z,1074.01
2024-01-03T08:59:59.876Z,1070.57
2024-01-03T09:01:00.438Z,1068.00
2024-01-03T09:01:59.647Z,1075.74
2024-01-03T09:02:59.726Z,1068.00
2024-01-03T09:04:00.328Z,1071.43
2024-01-03T09:04:59.584Z,1063.74
2024-01-03T09:06:00.346Z,1065.44
2024-01-03T09:06:59.662Z,1061.21
2024-01-03T09:08:00.635Z,1055.34
2024-01-03T09:08:58.950Z,1061.21
2024-01-03T09:09:58.861Z,1060.36
2024-01-03T09:10:59.531Z,1053.67
2024-01-03T09:11:59.568Z,1043.78
2024-01-03T09:12:59.500Z,1054.50
2024-01-03T09:13:59.453Z,1047.88
2024-01-03T09:15:00.738Z,1038.10
2024-01-03T09:16:00.140Z,1031.69
2024-01-03T09:16:58.722Z,1038.10
2024-01-03T09:17:58.973Z,1026.92
2024-01-03T09:19:00.380Z,1020.64
2024-01-03T09:19:59.480Z,1025.35
2024-01-03T09:20:59.442Z,1019.08
2024-01-03T09:21:59.368Z,1018.31
2024-01-03T09:22:59.102Z,1015.21
2024-01-03T09:23:59.382Z,1006.79
2024-01-03T09:24:58.594Z,1012.90
2024-01-03T09:25:59.320Z,1008.31
2024-01-03T09:27:00.016Z,1007.55
2024-01-03T09:28:00.113Z,1005.27
2024-01-03T09:28:59.255Z,1004.52
2024-01-03T09:30:00.000Z,999.25
2024-01-03T09:30:59.408Z,991.09
2024-01-03T09:32:00.074Z,983.79
2024-01-03T09:32:58.679Z,996.27
2024-01-03T09:34:00.031Z,991.09
2024-01-03T09:34:59.215Z,1003.76
2024-01-03T09:35:59.279Z,1009.83
2024-01-03T09:37:00.465Z,1036.49
2024-01-03T09:37:59.851Z,1049.53
2024-01-03T09:38:59.147Z,1057.01
2024-01-03T09:39:59.828Z,1055.34
2024-01-03T09:40:58.374Z,1075.74
2024-01-03T09:42:00.504Z,1104.22
2024-01-03T09:43:00.647Z,1122.79
2024-01-03T09:44:00.310Z,1120.91
2024-01-03T09:44:58.524Z,1123.74
2024-01-03T09:45:59.725Z,1118.09
2024-01-03T09:46:59.005Z,1116.22
2024-01-03T09:47:59.773Z,1104.22
2024-01-03T09:48:59.247Z,1104.22
2024-01-03T09:50:00.336Z,1092.47
2024-01-03T09:50:59.095Z,1094.26
2024-01-03T09:51:58.974Z,1091.58
2024-01-03T09:52:59.628Z,1088.02
2024-01-03T09:53:59.331Z,1096.06
2024-01-03T09:54:58.921Z,1084.48
2024-01-03T09:55:59.572Z,1075.74
2024-01-03T09:56:59.663Z,1069.71
2024-01-03T09:57:59.561Z,1066.29
2024-01-03T09:58:59.557Z,1064.59
2024-01-03T09:59:59.620Z,1056.17
2024-01-03T10:00:58.935Z,1052.01
2024-01-03T10:01:58.864Z,1054.50
2024-01-03T10:02:59.547Z,1046.24
2024-01-03T10:03:58.843Z,1047.06
2024-01-03T10:04:59.517Z,1041.34
2024-01-03T10:05:59.516Z,1047.06
2024-01-03T10:06:59.474Z,1035.69
2024-01-03T10:07:58.730Z,1044.60
2024-01-03T10:08:59.663Z,1039.72
2024-01-03T10:09:58.710Z,1047.88
2024-01-03T10:10:59.388Z,1044.60
2024-01-03T10:11:59.419Z,1056.17
2024-01-03T10:12:59.900Z,1066.29
2024-01-03T10:13:58.721Z,1074.01
2024-01-03T10:14:59.433Z,1081.85
2024-01-03T10:15:59.308Z,1095.16
2024-01-03T10:16:58.682Z,1099.67
2024-01-03T10:17:58.743Z,1106.96
2024-01-03T10:18:59.896Z,1117.16
2024-01-03T10:19:58.645Z,1118.09
2024-01-03T10:20:58.613Z,1123.74
2024-01-03T10:21:59.217Z,1122.79
2024-01-03T10:22:58.565Z,1121.85
2024-01-03T10:23:58.671Z,1122.79
2024-01-03T10:24:59.183Z,1117.16
2024-01-03T10:25:59.249Z,1116.22
2024-01-03T10:26:57.934Z,1114.36
2024-01-03T10:27:59.151Z,1106.05
2024-01-03T10:28:58.492Z,1115.29
2024-01-03T10:29:59.152Z,1110.65
2024-01-03T10:30:59.159Z,1101.48
2024-01-03T10:31:59.073Z,1108.80
2024-01-03T10:32:58.616Z,1112.50
2024-01-03T10:34:03.502Z,1111.57
2024-01-03T10:35:00.809Z,1106.05
2024-01-03T10:35:58.419Z,1107.88
2024-01-03T10:36:57.717Z,1099.67
2024-01-03T10:37:58.364Z,1103.31
2024-01-03T10:38:58.062Z,1106.05
2024-01-03T10:39:58.966Z,1103.31
2024-01-03T10:40:58.288Z,1100.58
2024-01-03T10:41:59.116Z,1104.22
2024-01-03T10:42:58.943Z,1103.31
2024-01-03T10:43:58.019Z,1112.50
2024-01-03T10:44:58.928Z,1106.05
2024-01-03T10:45:58.917Z,1102.40
2024-01-03T10:46:59.444Z,1098.77
2024-01-03T10:47:59.635Z,1101.48
2024-01-03T10:48:59.534Z,1105.13
2024-01-03T10:49:59.544Z,1104.22
2024-01-03T10:50:59.434Z,1107.88
2024-01-03T10:51:58.138Z,1108.80
2024-01-03T10:52:59.461Z,1115.29
2024-01-03T10:53:58.833Z,1121.85
2024-01-03T10:54:57.416Z,1119.03
2024-01-03T10:55:58.750Z,1127.53
2024-01-03T10:56:58.113Z,1121.85
2024-01-03T10:57:57.345Z,1112.50
2024-01-03T10:58:58.027Z,1113.43
2024-01-03T10:59:58.747Z,1116.22
2024-01-03T11:00:58.755Z,1123.74
2024-01-03T11:01:58.731Z,1124.68
2024-01-03T11:02:57.964Z,1118.09
2024-01-03T11:03:58.740Z,1116.22
2024-01-03T11:04:57.979Z,1120.91
2024-01-03T11:05:58.000Z,1114.36
2024-01-03T11:06:58.649Z,1111.57
2024-01-03T11:07:58.597Z,1106.05
2024-01-03T11:08:57.945Z,1096.96
2024-01-03T11:09:57.882Z,1093.37
2024-01-03T11:10:57.889Z,1097.86
2024-01-03T11:11:58.623Z,1096.96
2024-01-03T11:12:57.873Z,1099.67
2024-01-03T11:13:58.491Z,1079.22
2024-01-03T11:14:57.925Z,1094.26
2024-01-03T11:15:57.845Z,1074.88
2024-01-03T11:16:58.471Z,1080.10
2024-01-03T11:17:58.023Z,1076.61
2024-01-03T11:18:57.831Z,1068.00
2024-01-03T11:19:57.739Z,1069.71
2024-01-03T11:20:58.468Z,1066.29
2024-01-03T11:21:57.699Z,1058.68
2024-01-03T11:22:57.687Z,1062.05
2024-01-03T11:23:57.709Z,1060.36
2024-01-03T11:24:57.704Z,1063.74
2024-01-03T11:25:57.672Z,1057.01
2024-01-03T11:26:57.880Z,1065.44
2024-01-03T11:27:57.618Z,1070.57
2024-01-03T11:28:58.293Z,1070.57
2024-01-03T11:29:58.449Z,1066.29
2024-01-03T11:30:57.581Z,1066.29
2024-01-03T11:31:58.245Z,1060.36
2024-01-03T11:32:57.196Z,1062.05
2024-01-03T11:33:58.287Z,1062.90
2024-01-03T11:34:57.581Z,1057.01
2024-01-03T11:35:57.531Z,1050.35
2024-01-03T11:36:56.993Z,1042.97
2024-01-03T11:37:57.495Z,1043.78
2024-01-03T11:38:58.208Z,1040.53
2024-01-03T11:39:57.318Z,1043.78
2024-01-03T11:40:57.472Z,1035.69
2024-01-03T11:41:57.567Z,1035.69
2024-01-03T11:42:56.682Z,1033.28
2024-01-03T11:43:57.313Z,1019.08
2024-01-03T11:44:57.360Z,1026.13
2024-01-03T11:45:57.370Z,1023.77
2024-01-03T11:46:57.366Z,1019.08
2024-01-03T11:47:58.093Z,1019.08
2024-01-03T11:48:58.084Z,1021.42
2024-01-03T11:49:57.395Z,1019.08
2024-01-03T11:50:57.318Z,1014.44
2024-01-03T11:51:56.550Z,1010.60
2024-01-03T11:52:57.282Z,1011.36
2024-01-03T11:53:58.566Z,1019.86
2024-01-03T11:54:57.946Z,1015.98
2024-01-03T11:55:57.258Z,1014.44
2024-01-03T11:56:58.580Z,1005.27
2024-01-03T11:57:58.434Z,1015.21
2024-01-03T11:58:58.426Z,1000.00
2024-01-03T11:59:58.485Z,1001.50
2024-01-03T12:00:58.396Z,996.27
2024-01-03T12:01:58.378Z,994.04
2024-01-03T12:02:58.672Z,991.83
2024-01-03T12:03:57.801Z,988.16
2024-01-03T12:04:57.146Z,982.34
2024-01-03T12:05:57.841Z,985.97